Hemlock, Ohio
Current Conditions -  °F | °C
As of 11:53 AM on Thursday 27 Nov 2014 (Local Time) from KZZV Reporting Station
Haze Haze  
Wind Chill: 24°   Ceiling: 1400
Heat Index: 32°   Visibility: 6mi
Dew Point: 27°   Wind: 10mph
Humidity: 82%   Direction: 290°WNW
Pressure: 30.16"   Gusts: NA
Location:  39.6239°N, 82.0947°W
Report Text: KZZV 271653Z AUTO 29009KT 6SM HZ BKN014 BKN022 OVC043 00/M03 A3016 RMK AO2 SNE49 SLP220 P0000 T00001028
Loading
Personal Weather Stations






























Interactive Weather Map New forecast layout! Learn more

10-Day Weather Forecast

Advertisements
Track Severe Weather on mobile